sensor_id;sensor_type;location;lat;lon;timestamp;pressure;altitude;pressure_sealevel;temperature;humidity
73700;BME280;62005;50.082;8.988;2023-05-01T00:00:14;100582.47;;;14.29;53.12
73700;BME280;62005;50.082;8.988;2023-05-01T00:02:39;100587.66;;;14.30;53.68
73700;BME280;62005;50.082;8.988;2023-05-01T00:05:05;100578.69;;;14.30;53.25
73700;BME280;62005;50.082;8.988;2023-05-01T00:07:31;100578.09;;;14.28;53.15
73700;BME280;62005;50.082;8.988;2023-05-01T00:09:57;100580.59;;;14.29;52.89
73700;BME280;62005;50.082;8.988;2023-05-01T00:12:23;100581.38;;;14.30;53.01
73700;BME280;62005;50.082;8.988;2023-05-01T00:14:49;100571.47;;;14.24;52.26
73700;BME280;62005;50.082;8.988;2023-05-01T00:17:15;100571.34;;;14.30;52.94
73700;BME280;62005;50.082;8.988;2023-05-01T00:19:40;100572.66;;;14.28;51.96
73700;BME280;62005;50.082;8.988;2023-05-01T00:22:06;100547.38;;;14.16;52.90
73700;BME280;62005;50.082;8.988;2023-05-01T00:24:31;100561.75;;;14.28;53.35
73700;BME280;62005;50.082;8.988;2023-05-01T00:26:57;100541.78;;;14.22;53.53
73700;BME280;62005;50.082;8.988;2023-05-01T00:29:22;100549.72;;;14.24;54.82
73700;BME280;62005;50.082;8.988;2023-05-01T00:31:47;100532.69;;;14.17;55.56
73700;BME280;62005;50.082;8.988;2023-05-01T00:34:13;100565.06;;;14.30;55.73
73700;BME280;62005;50.082;8.988;2023-05-01T00:36:38;100549.72;;;14.24;55.88
73700;BME280;62005;50.082;8.988;2023-05-01T00:39:04;100553.06;;;14.26;55.76
73700;BME280;62005;50.082;8.988;2023-05-01T00:41:30;100545.44;;;14.28;55.36
73700;BME280;62005;50.082;8.988;2023-05-01T00:43:55;100542.84;;;14.21;55.14
73700;BME280;62005;50.082;8.988;2023-05-01T00:46:20;100532.34;;;14.13;55.39
73700;BME280;62005;50.082;8.988;2023-05-01T00:48:46;100541.34;;;14.14;55.61
73700;BME280;62005;50.082;8.988;2023-05-01T00:51:11;100535.31;;;14.12;55.97
73700;BME280;62005;50.082;8.988;2023-05-01T00:53:39;100551.16;;;14.15;56.18
73700;BME280;62005;50.082;8.988;2023-05-01T00:56:05;100510.69;;;13.90;56.04
73700;BME280;62005;50.082;8.988;2023-05-01T00:58:31;100534.63;;;14.05;55.89
73700;BME280;62005;50.082;8.988;2023-05-01T01:00:56;100535.13;;;14.02;56.67
73700;BME280;62005;50.082;8.988;2023-05-01T01:03:22;100518.03;;;13.90;56.59
73700;BME280;62005;50.082;8.988;2023-05-01T01:05:55;100530.16;;;13.99;56.83
73700;BME280;62005;50.082;8.988;2023-05-01T01:08:29;100526.06;;;13.96;56.66
73700;BME280;62005;50.082;8.988;2023-05-01T01:13:55;100510.34;;;13.87;57.60
73700;BME280;62005;50.082;8.988;2023-05-01T01:16:35;100505.38;;;13.84;58.48
73700;BME280;62005;50.082;8.988;2023-05-01T01:22:02;100488.28;;;13.72;58.92
73700;BME280;62005;50.082;8.988;2023-05-01T01:30:29;100491.38;;;13.64;59.18
73700;BME280;62005;50.082;8.988;2023-05-01T01:35:26;100487.41;;;13.43;59.79
73700;BME280;62005;50.082;8.988;2023-05-01T01:38:03;100498.63;;;13.47;59.31
73700;BME280;62005;50.082;8.988;2023-05-01T01:40:54;100502.88;;;13.43;59.79
73700;BME280;62005;50.082;8.988;2023-05-01T01:43:22;100494.59;;;13.38;59.72
73700;BME280;62005;50.082;8.988;2023-05-01T01:45:52;100500.03;;;13.38;60.39
73700;BME280;62005;50.082;8.988;2023-05-01T01:48:30;100490.94;;;13.32;60.63
73700;BME280;62005;50.082;8.988;2023-05-01T01:50:58;100469.25;;;13.21;60.31
73700;BME280;62005;50.082;8.988;2023-05-01T01:53:25;100463.69;;;13.16;60.53
73700;BME280;62005;50.082;8.988;2023-05-01T01:55:53;100434.91;;;12.91;60.69
73700;BME280;62005;50.082;8.988;2023-05-01T01:58:20;100466.66;;;13.14;60.72
73700;BME280;62005;50.082;8.988;2023-05-01T02:00:51;100463.50;;;13.05;60.30
73700;BME280;62005;50.082;8.988;2023-05-01T02:03:18;100480.94;;;13.09;60.66
73700;BME280;62005;50.082;8.988;2023-05-01T02:05:45;100476.81;;;13.07;61.10
73700;BME280;62005;50.082;8.988;2023-05-01T02:08:11;100472.69;;;13.04;61.76
73700;BME280;62005;50.082;8.988;2023-05-01T02:10:40;100475.22;;;12.99;61.28
73700;BME280;62005;50.082;8.988;2023-05-01T02:13:06;100469.09;;;12.92;62.23
73700;BME280;62005;50.082;8.988;2023-05-01T02:15:33;100456.34;;;12.81;62.42
73700;BME280;62005;50.082;8.988;2023-05-01T02:18:00;100476.06;;;12.88;63.22
73700;BME280;62005;50.082;8.988;2023-05-01T02:20:27;100455.63;;;12.74;62.45
73700;BME280;62005;50.082;8.988;2023-05-01T02:22:52;100463.78;;;12.74;62.43
73700;BME280;62005;50.082;8.988;2023-05-01T02:25:18;100458.94;;;12.76;63.30
73700;BME280;62005;50.082;8.988;2023-05-01T02:27:53;100464.84;;;12.73;63.18
73700;BME280;62005;50.082;8.988;2023-05-01T02:30:20;100472.84;;;12.68;62.93
73700;BME280;62005;50.082;8.988;2023-05-01T02:32:45;100449.75;;;12.54;62.73
73700;BME280;62005;50.082;8.988;2023-05-01T02:35:10;100462.13;;;12.62;62.61
73700;BME280;62005;50.082;8.988;2023-05-01T02:37:36;100457.41;;;12.57;62.99
73700;BME280;62005;50.082;8.988;2023-05-01T02:40:03;100473.81;;;12.62;63.45
73700;BME280;62005;50.082;8.988;2023-05-01T02:42:31;100465.16;;;12.54;63.82
73700;BME280;62005;50.082;8.988;2023-05-01T02:45:01;100475.19;;;12.53;63.58
73700;BME280;62005;50.082;8.988;2023-05-01T02:47:29;100474.00;;;12.49;63.34
73700;BME280;62005;50.082;8.988;2023-05-01T02:49:55;100450.38;;;12.38;63.92
73700;BME280;62005;50.082;8.988;2023-05-01T02:52:21;100467.38;;;12.45;63.95
73700;BME280;62005;50.082;8.988;2023-05-01T02:54:47;100450.25;;;12.33;64.51
73700;BME280;62005;50.082;8.988;2023-05-01T02:57:15;100451.34;;;12.32;64.42
73700;BME280;62005;50.082;8.988;2023-05-01T02:59:41;100401.28;;;12.05;65.15
73700;BME280;62005;50.082;8.988;2023-05-01T03:02:06;100446.47;;;12.23;64.94
73700;BME280;62005;50.082;8.988;2023-05-01T03:04:31;100463.09;;;12.26;65.10
73700;BME280;62005;50.082;8.988;2023-05-01T03:06:57;100445.66;;;12.22;64.54
73700;BME280;62005;50.082;8.988;2023-05-01T03:09:22;100439.50;;;12.15;64.92
73700;BME280;62005;50.082;8.988;2023-05-01T03:11:47;100438.59;;;12.21;64.88
73700;BME280;62005;50.082;8.988;2023-05-01T03:14:13;100449.84;;;12.18;65.44
73700;BME280;62005;50.082;8.988;2023-05-01T03:16:38;100442.44;;;12.14;65.95
73700;BME280;62005;50.082;8.988;2023-05-01T03:19:07;100448.69;;;12.14;65.17
73700;BME280;62005;50.082;8.988;2023-05-01T03:21:32;100439.22;;;12.05;65.59
73700;BME280;62005;50.082;8.988;2023-05-01T03:23:58;100446.31;;;12.06;65.66
73700;BME280;62005;50.082;8.988;2023-05-01T03:26:24;100450.53;;;12.02;66.40
73700;BME280;62005;50.082;8.988;2023-05-01T03:28:50;100452.06;;;11.98;66.13
73700;BME280;62005;50.082;8.988;2023-05-01T03:31:15;100452.94;;;11.92;65.88
73700;BME280;62005;50.082;8.988;2023-05-01T03:33:40;100439.88;;;11.89;66.68
73700;BME280;62005;50.082;8.988;2023-05-01T03:36:06;100449.50;;;11.85;66.73
73700;BME280;62005;50.082;8.988;2023-05-01T03:38:34;100435.63;;;11.82;67.10
73700;BME280;62005;50.082;8.988;2023-05-01T03:40:59;100435.47;;;11.76;67.13
73700;BME280;62005;50.082;8.988;2023-05-01T03:43:25;100440.78;;;11.83;66.94
73700;BME280;62005;50.082;8.988;2023-05-01T03:45:50;100455.38;;;11.82;66.33
73700;BME280;62005;50.082;8.988;2023-05-01T03:48:19;100445.59;;;11.81;66.99
73700;BME280;62005;50.082;8.988;2023-05-01T03:50:44;100433.44;;;11.72;67.25
73700;BME280;62005;50.082;8.988;2023-05-01T03:53:10;100440.50;;;11.73;67.24
73700;BME280;62005;50.082;8.988;2023-05-01T03:55:37;100428.94;;;11.66;67.78
73700;BME280;62005;50.082;8.988;2023-05-01T03:58:02;100428.53;;;11.62;68.04
73700;BME280;62005;50.082;8.988;2023-05-01T04:00:27;100391.19;;;11.35;67.51
73700;BME280;62005;50.082;8.988;2023-05-01T04:02:53;100442.28;;;11.61;67.67
73700;BME280;62005;50.082;8.988;2023-05-01T04:05:18;100430.72;;;11.54;67.83
73700;BME280;62005;50.082;8.988;2023-05-01T04:07:45;100440.66;;;11.60;68.37
73700;BME280;62005;50.082;8.988;2023-05-01T04:10:11;100432.38;;;11.55;67.94
73700;BME280;62005;50.082;8.988;2023-05-01T04:12:36;100437.41;;;11.51;68.16
73700;BME280;62005;50.082;8.988;2023-05-01T04:15:01;100440.34;;;11.50;68.26
73700;BME280;62005;50.082;8.988;2023-05-01T04:17:28;100427.56;;;11.39;68.03
73700;BME280;62005;50.082;8.988;2023-05-01T04:19:53;100434.56;;;11.46;68.42
73700;BME280;62005;50.082;8.988;2023-05-01T04:22:20;100436.28;;;11.41;69.08
73700;BME280;62005;50.082;8.988;2023-05-01T04:24:46;100407.81;;;11.20;69.19
73700;BME280;62005;50.082;8.988;2023-05-01T04:27:12;100438.38;;;11.39;68.84
73700;BME280;62005;50.082;8.988;2023-05-01T04:29:37;100430.56;;;11.31;69.36
73700;BME280;62005;50.082;8.988;2023-05-01T04:32:02;100427.72;;;11.26;69.31
73700;BME280;62005;50.082;8.988;2023-05-01T04:34:28;100441.78;;;11.34;69.31
73700;BME280;62005;50.082;8.988;2023-05-01T04:36:54;100431.03;;;11.28;69.64
73700;BME280;62005;50.082;8.988;2023-05-01T04:39:21;100439.16;;;11.28;69.30
73700;BME280;62005;50.082;8.988;2023-05-01T04:41:47;100436.44;;;11.28;69.92
73700;BME280;62005;50.082;8.988;2023-05-01T04:44:12;100431.03;;;11.28;70.27
73700;BME280;62005;50.082;8.988;2023-05-01T04:46:37;100419.44;;;11.21;70.17
73700;BME280;62005;50.082;8.988;2023-05-01T04:49:02;100434.34;;;11.30;70.00
73700;BME280;62005;50.082;8.988;2023-05-01T04:51:28;100429.41;;;11.27;70.01
73700;BME280;62005;50.082;8.988;2023-05-01T04:53:53;100429.41;;;11.27;70.12
73700;BME280;62005;50.082;8.988;2023-05-01T04:56:19;100432.69;;;11.29;69.94
73700;BME280;62005;50.082;8.988;2023-05-01T04:58:45;100412.41;;;11.20;70.20
73700;BME280;62005;50.082;8.988;2023-05-01T05:01:10;100428.94;;;11.30;70.60
73700;BME280;62005;50.082;8.988;2023-05-01T05:03:36;100426.84;;;11.32;70.46
73700;BME280;62005;50.082;8.988;2023-05-01T05:06:01;100409.84;;;11.25;70.05
73700;BME280;62005;50.082;8.988;2023-05-01T05:08:27;100432.63;;;11.35;70.22
73700;BME280;62005;50.082;8.988;2023-05-01T05:10:57;100430.50;;;11.37;69.97
73700;BME280;62005;50.082;8.988;2023-05-01T05:13:23;100416.00;;;11.32;70.31
73700;BME280;62005;50.082;8.988;2023-05-01T05:15:48;100428.78;;;11.43;70.16
73700;BME280;62005;50.082;8.988;2023-05-01T05:18:14;100426.75;;;11.38;70.29
73700;BME280;62005;50.082;8.988;2023-05-01T05:20:39;100430.00;;;11.47;70.95
73700;BME280;62005;50.082;8.988;2023-05-01T05:23:05;100425.75;;;11.51;71.23
73700;BME280;62005;50.082;8.988;2023-05-01T05:25:30;100426.59;;;11.51;71.28
73700;BME280;62005;50.082;8.988;2023-05-01T05:27:55;100414.31;;;11.49;71.59
73700;BME280;62005;50.082;8.988;2023-05-01T05:30:21;100407.41;;;11.53;71.57
73700;BME280;62005;50.082;8.988;2023-05-01T05:32:46;100432.25;;;11.68;71.16
73700;BME280;62005;50.082;8.988;2023-05-01T05:35:12;100408.34;;;11.65;71.02
73700;BME280;62005;50.082;8.988;2023-05-01T05:37:37;100429.22;;;11.76;71.19
73700;BME280;62005;50.082;8.988;2023-05-01T05:40:02;100421.69;;;11.78;71.58
73700;BME280;62005;50.082;8.988;2023-05-01T05:42:28;100419.13;;;11.83;70.84
73700;BME280;62005;50.082;8.988;2023-05-01T05:44:53;100417.38;;;11.89;71.00
73700;BME280;62005;50.082;8.988;2023-05-01T05:47:18;100417.72;;;11.92;70.92
73700;BME280;62005;50.082;8.988;2023-05-01T05:49:44;100394.88;;;11.88;70.49
73700;BME280;62005;50.082;8.988;2023-05-01T05:52:09;100417.06;;;12.08;70.70
73700;BME280;62005;50.082;8.988;2023-05-01T05:54:35;100404.59;;;12.07;70.33
73700;BME280;62005;50.082;8.988;2023-05-01T05:57:00;100397.81;;;12.16;69.86
73700;BME280;62005;50.082;8.988;2023-05-01T05:59:27;100396.03;;;12.22;69.76
73700;BME280;62005;50.082;8.988;2023-05-01T06:01:53;100404.19;;;12.33;69.61
73700;BME280;62005;50.082;8.988;2023-05-01T06:04:18;100402.78;;;12.42;68.84
73700;BME280;62005;50.082;8.988;2023-05-01T06:06:43;100399.72;;;12.50;68.98
73700;BME280;62005;50.082;8.988;2023-05-01T06:09:09;100399.63;;;12.57;69.23
73700;BME280;62005;50.082;8.988;2023-05-01T06:11:34;100411.66;;;12.72;69.22
73700;BME280;62005;50.082;8.988;2023-05-01T06:14:00;100403.06;;;12.75;69.00
73700;BME280;62005;50.082;8.988;2023-05-01T06:16:26;100384.31;;;12.74;68.30
73700;BME280;62005;50.082;8.988;2023-05-01T06:18:52;100393.59;;;12.89;67.60
73700;BME280;62005;50.082;8.988;2023-05-01T06:21:17;100387.00;;;12.97;67.40
73700;BME280;62005;50.082;8.988;2023-05-01T06:23:43;100390.78;;;13.07;66.90
73700;BME280;62005;50.082;8.988;2023-05-01T06:26:08;100387.69;;;13.16;67.22
73700;BME280;62005;50.082;8.988;2023-05-01T06:28:34;100378.50;;;13.17;67.34
73700;BME280;62005;50.082;8.988;2023-05-01T06:30:59;100367.16;;;13.20;66.00
73700;BME280;62005;50.082;8.988;2023-05-01T06:33:25;100394.25;;;13.43;66.22
73700;BME280;62005;50.082;8.988;2023-05-01T06:35:50;100386.22;;;13.48;67.24
73700;BME280;62005;50.082;8.988;2023-05-01T06:38:15;100390.38;;;13.67;66.72
73700;BME280;62005;50.082;8.988;2023-05-01T06:40:41;100387.16;;;13.81;66.61
73700;BME280;62005;50.082;8.988;2023-05-01T06:43:06;100382.22;;;13.95;66.05
73700;BME280;62005;50.082;8.988;2023-05-01T06:45:32;100386.38;;;14.14;66.20
73700;BME280;62005;50.082;8.988;2023-05-01T06:47:58;100388.50;;;14.40;65.24
73700;BME280;62005;50.082;8.988;2023-05-01T06:50:23;100391.03;;;14.63;64.97
73700;BME280;62005;50.082;8.988;2023-05-01T06:52:48;100383.25;;;14.88;63.95
73700;BME280;62005;50.082;8.988;2023-05-01T06:55:14;100386.84;;;15.10;63.39
73700;BME280;62005;50.082;8.988;2023-05-01T06:57:39;100373.44;;;15.25;61.97
73700;BME280;62005;50.082;8.988;2023-05-01T07:00:05;100353.28;;;15.26;61.17
73700;BME280;62005;50.082;8.988;2023-05-01T07:02:31;100387.00;;;15.63;61.53
73700;BME280;62005;50.082;8.988;2023-05-01T07:04:56;100380.03;;;15.73;59.50
73700;BME280;62005;50.082;8.988;2023-05-01T07:07:22;100382.09;;;15.87;57.46
73700;BME280;62005;50.082;8.988;2023-05-01T07:09:47;100375.09;;;15.96;57.33
73700;BME280;62005;50.082;8.988;2023-05-01T07:12:13;100378.19;;;16.05;55.34
73700;BME280;62005;50.082;8.988;2023-05-01T07:14:38;100382.31;;;16.07;54.86
73700;BME280;62005;50.082;8.988;2023-05-01T07:17:05;100378.78;;;16.12;55.03
73700;BME280;62005;50.082;8.988;2023-05-01T07:19:31;100364.88;;;16.13;55.42
73700;BME280;62005;50.082;8.988;2023-05-01T07:21:56;100370.69;;;16.22;54.52
73700;BME280;62005;50.082;8.988;2023-05-01T07:24:21;100356.53;;;16.25;53.55
73700;BME280;62005;50.082;8.988;2023-05-01T07:26:47;100364.28;;;16.33;53.43
73700;BME280;62005;50.082;8.988;2023-05-01T07:29:13;100361.56;;;16.38;51.97
73700;BME280;62005;50.082;8.988;2023-05-01T07:31:40;100362.38;;;16.38;52.29
73700;BME280;62005;50.082;8.988;2023-05-01T07:34:05;100352.84;;;16.36;52.67
73700;BME280;62005;50.082;8.988;2023-05-01T07:36:31;100374.25;;;16.49;51.79
73700;BME280;62005;50.082;8.988;2023-05-01T07:38:57;100362.81;;;16.52;53.01
73700;BME280;62005;50.082;8.988;2023-05-01T07:41:23;100363.41;;;16.59;52.50
73700;BME280;62005;50.082;8.988;2023-05-01T07:43:49;100360.72;;;16.64;49.94
73700;BME280;62005;50.082;8.988;2023-05-01T07:46:15;100363.44;;;16.64;50.21
73700;BME280;62005;50.082;8.988;2023-05-01T07:48:41;100360.16;;;16.62;51.14
73700;BME280;62005;50.082;8.988;2023-05-01T07:51:06;100361.28;;;16.71;52.95
73700;BME280;62005;50.082;8.988;2023-05-01T07:53:31;100366.25;;;16.74;53.06
73700;BME280;62005;50.082;8.988;2023-05-01T07:56:07;100360.25;;;16.77;52.75
73700;BME280;62005;50.082;8.988;2023-05-01T07:58:33;100366.84;;;16.86;51.98
73700;BME280;62005;50.082;8.988;2023-05-01T08:00:59;100359.75;;;16.85;53.27
73700;BME280;62005;50.082;8.988;2023-05-01T08:03:27;100359.25;;;16.93;52.17
73700;BME280;62005;50.082;8.988;2023-05-01T08:05:52;100348.34;;;16.93;51.85
73700;BME280;62005;50.082;8.988;2023-05-01T08:08:18;100362.59;;;17.00;52.16
73700;BME280;62005;50.082;8.988;2023-05-01T08:10:45;100341.25;;;16.92;51.45
73700;BME280;62005;50.082;8.988;2023-05-01T08:13:11;100362.09;;;17.08;50.55
73700;BME280;62005;50.082;8.988;2023-05-01T08:15:36;100357.19;;;17.10;50.91
73700;BME280;62005;50.082;8.988;2023-05-01T08:18:03;100353.94;;;17.18;50.49
73700;BME280;62005;50.082;8.988;2023-05-01T08:20:29;100358.31;;;17.19;51.30
73700;BME280;62005;50.082;8.988;2023-05-01T08:22:54;100353.44;;;17.26;50.20
73700;BME280;62005;50.082;8.988;2023-05-01T08:25:20;100360.00;;;17.30;50.29
73700;BME280;62005;50.082;8.988;2023-05-01T08:27:45;100352.91;;;17.34;51.22
73700;BME280;62005;50.082;8.988;2023-05-01T08:30:11;100360.06;;;17.45;49.76
73700;BME280;62005;50.082;8.988;2023-05-01T08:32:36;100359.00;;;17.46;48.93
73700;BME280;62005;50.082;8.988;2023-05-01T08:35:01;100348.06;;;17.46;48.88
73700;BME280;62005;50.082;8.988;2023-05-01T08:37:27;100334.91;;;17.38;49.88
73700;BME280;62005;50.082;8.988;2023-05-01T08:39:52;100339.91;;;17.51;49.98
73700;BME280;62005;50.082;8.988;2023-05-01T08:42:18;100354.66;;;17.60;50.50
73700;BME280;62005;50.082;8.988;2023-05-01T08:44:44;100350.59;;;17.68;50.40
73700;BME280;62005;50.082;8.988;2023-05-01T08:47:14;100351.69;;;17.72;51.02
73700;BME280;62005;50.082;8.988;2023-05-01T08:49:41;100341.28;;;17.69;51.33
73700;BME280;62005;50.082;8.988;2023-05-01T08:52:07;100353.63;;;17.76;50.88
73700;BME280;62005;50.082;8.988;2023-05-01T08:54:33;100337.75;;;17.73;49.36
73700;BME280;62005;50.082;8.988;2023-05-01T08:57:00;100336.69;;;17.74;49.19
73700;BME280;62005;50.082;8.988;2023-05-01T08:59:33;100332.28;;;17.78;49.69
73700;BME280;62005;50.082;8.988;2023-05-01T09:02:02;100342.72;;;17.86;50.80
73700;BME280;62005;50.082;8.988;2023-05-01T09:04:40;100343.25;;;17.88;49.95
73700;BME280;62005;50.082;8.988;2023-05-01T09:07:07;100335.88;;;17.89;50.46
73700;BME280;62005;50.082;8.988;2023-05-01T09:09:33;100336.72;;;17.89;50.67
73700;BME280;62005;50.082;8.988;2023-05-01T09:12:00;100347.66;;;17.99;50.01
73700;BME280;62005;50.082;8.988;2023-05-01T09:14:30;100339.19;;;18.01;49.62
73700;BME280;62005;50.082;8.988;2023-05-01T09:16:56;100319.19;;;17.85;48.29
73700;BME280;62005;50.082;8.988;2023-05-01T09:19:21;100341.66;;;18.02;48.01
73700;BME280;62005;50.082;8.988;2023-05-01T09:21:47;100339.47;;;18.04;48.59
73700;BME280;62005;50.082;8.988;2023-05-01T09:24:12;100342.72;;;18.06;47.89
73700;BME280;62005;50.082;8.988;2023-05-01T09:26:40;100340.53;;;18.08;48.44
73700;BME280;62005;50.082;8.988;2023-05-01T09:29:07;100343.28;;;18.13;49.29
73700;BME280;62005;50.082;8.988;2023-05-01T09:31:34;100341.66;;;18.12;49.34
73700;BME280;62005;50.082;8.988;2023-05-01T09:34:02;100338.91;;;18.07;47.69
73700;BME280;62005;50.082;8.988;2023-05-01T09:36:32;100343.56;;;18.17;48.28
73700;BME280;62005;50.082;8.988;2023-05-01T09:38:59;100338.38;;;18.20;50.20
73700;BME280;62005;50.082;8.988;2023-05-01T09:41:26;100336.75;;;18.19;49.96
73700;BME280;62005;50.082;8.988;2023-05-01T09:43:54;100341.66;;;18.23;50.01
73700;BME280;62005;50.082;8.988;2023-05-01T09:46:21;100338.66;;;18.24;49.49
73700;BME280;62005;50.082;8.988;2023-05-01T09:48:51;100312.91;;;18.15;48.77
73700;BME280;62005;50.082;8.988;2023-05-01T09:51:24;100338.94;;;18.28;48.79
73700;BME280;62005;50.082;8.988;2023-05-01T09:53:52;100309.38;;;18.19;48.91
73700;BME280;62005;50.082;8.988;2023-05-01T09:56:19;100324.97;;;18.29;48.95
73700;BME280;62005;50.082;8.988;2023-05-01T09:58:45;100328.50;;;18.30;48.10
73700;BME280;62005;50.082;8.988;2023-05-01T10:01:11;100330.16;;;18.31;47.96
73700;BME280;62005;50.082;8.988;2023-05-01T10:03:36;100319.78;;;18.23;48.04
73700;BME280;62005;50.082;8.988;2023-05-01T10:06:02;100327.97;;;18.28;48.64
73700;BME280;62005;50.082;8.988;2023-05-01T10:08:44;100331.78;;;18.32;48.32
73700;BME280;62005;50.082;8.988;2023-05-01T10:11:10;100315.94;;;18.23;47.69
73700;BME280;62005;50.082;8.988;2023-05-01T10:13:35;100331.25;;;18.30;46.30
73700;BME280;62005;50.082;8.988;2023-05-01T10:16:01;100287.47;;;17.99;47.11
73700;BME280;62005;50.082;8.988;2023-05-01T10:18:32;100326.88;;;18.23;47.03
73700;BME280;62005;50.082;8.988;2023-05-01T10:20:58;100338.94;;;18.23;46.81
73700;BME280;62005;50.082;8.988;2023-05-01T10:23:24;100340.00;;;18.21;47.58
73700;BME280;62005;50.082;8.988;2023-05-01T10:25:51;100328.53;;;18.14;46.55
73700;BME280;62005;50.082;8.988;2023-05-01T10:28:19;100330.16;;;18.15;47.46
73700;BME280;62005;50.082;8.988;2023-05-01T10:30:45;100325.25;;;18.12;47.73
73700;BME280;62005;50.082;8.988;2023-05-01T10:33:12;100333.19;;;18.14;46.79
73700;BME280;62005;50.082;8.988;2023-05-01T10:35:41;100337.25;;;18.21;45.88
73700;BME280;62005;50.082;8.988;2023-05-01T10:38:13;100341.66;;;18.23;47.00
73700;BME280;62005;50.082;8.988;2023-05-01T10:40:48;100323.06;;;18.09;45.53
73700;BME280;62005;50.082;8.988;2023-05-01T10:43:24;100338.38;;;18.10;45.19
73700;BME280;62005;50.082;8.988;2023-05-01T10:45:51;100332.34;;;18.08;45.65
73700;BME280;62005;50.082;8.988;2023-05-01T10:51:16;100331.25;;;17.99;45.00
73700;BME280;62005;50.082;8.988;2023-05-01T10:53:46;100330.69;;;17.92;44.62
73700;BME280;62005;50.082;8.988;2023-05-01T11:01:33;100318.63;;;17.88;46.67
73700;BME280;62005;50.082;8.988;2023-05-01T11:12:05;100319.22;;;18.05;47.73
73700;BME280;62005;50.082;8.988;2023-05-01T11:20:04;100292.69;;;18.06;46.66
73700;BME280;62005;50.082;8.988;2023-05-01T11:22:31;100297.06;;;18.12;46.97
73700;BME280;62005;50.082;8.988;2023-05-01T11:24:56;100288.00;;;18.06;46.08
73700;BME280;62005;50.082;8.988;2023-05-01T11:27:22;100313.19;;;18.29;44.56
73700;BME280;62005;50.082;8.988;2023-05-01T11:29:48;100299.50;;;18.34;45.96
73700;BME280;62005;50.082;8.988;2023-05-01T11:32:19;100300.09;;;18.41;45.41
73700;BME280;62005;50.082;8.988;2023-05-01T11:34:48;100309.09;;;18.46;46.41
73700;BME280;62005;50.082;8.988;2023-05-01T11:37:14;100313.78;;;18.46;44.60
73700;BME280;62005;50.082;8.988;2023-05-01T11:39:49;100313.78;;;18.41;43.79
73700;BME280;62005;50.082;8.988;2023-05-01T11:42:14;100315.38;;;18.37;44.46
73700;BME280;62005;50.082;8.988;2023-05-01T11:44:40;100300.63;;;18.28;44.40
73700;BME280;62005;50.082;8.988;2023-05-01T11:47:05;100298.16;;;18.31;45.65
73700;BME280;62005;50.082;8.988;2023-05-01T11:49:31;100310.47;;;18.44;45.61
73700;BME280;62005;50.082;8.988;2023-05-01T11:51:57;100304.44;;;18.47;44.27
73700;BME280;62005;50.082;8.988;2023-05-01T11:54:23;100281.97;;;18.30;44.32
73700;BME280;62005;50.082;8.988;2023-05-01T11:56:57;100303.91;;;18.50;44.95
73700;BME280;62005;50.082;8.988;2023-05-01T11:59:23;100293.22;;;18.53;44.60
73700;BME280;62005;50.082;8.988;2023-05-01T12:01:50;100295.66;;;18.60;44.10
73700;BME280;62005;50.082;8.988;2023-05-01T12:04:26;100302.78;;;18.66;43.47
73700;BME280;62005;50.082;8.988;2023-05-01T12:06:52;100302.22;;;18.69;44.36
73700;BME280;62005;50.082;8.988;2023-05-01T12:09:23;100279.78;;;18.62;43.78
73700;BME280;62005;50.082;8.988;2023-05-01T12:11:52;100287.44;;;18.65;43.82
73700;BME280;62005;50.082;8.988;2023-05-01T12:14:19;100307.16;;;18.72;43.41
73700;BME280;62005;50.082;8.988;2023-05-01T12:16:45;100280.31;;;18.69;44.62
73700;BME280;62005;50.082;8.988;2023-05-01T12:19:12;100292.88;;;18.80;44.51
73700;BME280;62005;50.082;8.988;2023-05-01T12:21:38;100303.28;;;18.83;43.81
73700;BME280;62005;50.082;8.988;2023-05-01T12:24:11;100285.78;;;18.79;43.72
73700;BME280;62005;50.082;8.988;2023-05-01T12:26:39;100298.91;;;18.87;43.56
73700;BME280;62005;50.082;8.988;2023-05-01T12:29:06;100288.50;;;18.79;42.57
73700;BME280;62005;50.082;8.988;2023-05-01T12:31:33;100298.34;;;18.90;43.84
73700;BME280;62005;50.082;8.988;2023-05-01T12:34:06;100295.03;;;18.88;42.97
73700;BME280;62005;50.082;8.988;2023-05-01T12:36:33;100290.41;;;18.88;42.64
73700;BME280;62005;50.082;8.988;2023-05-01T12:39:03;100296.13;;;18.92;42.73
73700;BME280;62005;50.082;8.988;2023-05-01T12:41:35;100282.47;;;18.87;42.93
73700;BME280;62005;50.082;8.988;2023-05-01T12:44:01;100291.72;;;18.96;43.90
73700;BME280;62005;50.082;8.988;2023-05-01T12:46:26;100285.16;;;19.02;44.03
73700;BME280;62005;50.082;8.988;2023-05-01T12:48:53;100269.28;;;18.99;43.53
73700;BME280;62005;50.082;8.988;2023-05-01T12:51:19;100279.09;;;19.10;43.93
73700;BME280;62005;50.082;8.988;2023-05-01T12:53:45;100272.00;;;19.04;43.04
73700;BME280;62005;50.082;8.988;2023-05-01T12:56:20;100274.69;;;19.09;43.21
73700;BME280;62005;50.082;8.988;2023-05-01T12:58:50;100271.41;;;19.12;42.95
73700;BME280;62005;50.082;8.988;2023-05-01T13:01:24;100260.97;;;19.14;43.52
73700;BME280;62005;50.082;8.988;2023-05-01T13:03:52;100265.34;;;19.20;43.86
73700;BME280;62005;50.082;8.988;2023-05-01T13:06:20;100262.56;;;19.25;44.26
73700;BME280;62005;50.082;8.988;2023-05-01T13:08:46;100258.19;;;19.19;43.61
73700;BME280;62005;50.082;8.988;2023-05-01T13:11:13;100252.72;;;19.19;43.47
73700;BME280;62005;50.082;8.988;2023-05-01T13:13:39;100254.38;;;19.20;43.12
73700;BME280;62005;50.082;8.988;2023-05-01T13:18:32;100244.53;;;19.14;42.99
73700;BME280;62005;50.082;8.988;2023-05-01T13:21:06;100246.69;;;19.22;43.29
73700;BME280;62005;50.082;8.988;2023-05-01T13:23:31;100252.16;;;19.32;42.73
73700;BME280;62005;50.082;8.988;2023-05-01T13:25:57;100237.91;;;19.30;43.56